El Paso, TX (88511)

2:15 PM MDT on August 22, 2014 (GMT -0600)
SAN CLEMENTE ESTATES | Change Station
CLOSE
Current Station
Personal Weather Station
Location: EL PASO, TX
Elevation: 4606 ft
Nearby Weather Stations

Elev 4606 ft 31.82 °N, 106.50 °W | Updated 7 seconds ago

Overcast
Overcast
75.0 °F
Feels Like 77 °F
N
0.0
Wind Variable Wind from ENE
Gusts 0.0 mph

Today
High -- | Low -- °F
--% Chance of Precip.
Yesterday
High -- | Low -- °F
Precip. -- in
6:35 AM 7:41 PM
Waning Crescent, 7% visible
Pressure 30.12 in
Visibility 10.0 miles
Clouds Scattered Clouds 2900 ft
Mostly Cloudy 6000 ft
Overcast 10000 ft
Heat Index 77 °F
Dew Point 63 °F
Humidity 67%
Rainfall 0.37 in
Snow Depth Not available.
UV 0.0 out of 12
Pollen 6.60 out of 12
Air Quality Not available.
Flu Activity Not available.
SPECI KELP 222002Z 16005KT 10SM -RA SCT029 BKN060 OVC100 23/17 A3012 RMK AO2 P0000 T02330167

More Conditions Fewer Conditions

Pressure 30.12 in
Visibility 10.0 miles
Clouds Scattered Clouds 2900 ft
Mostly Cloudy 6000 ft
Overcast 10000 ft
Heat Index 77 °F
Dew Point 63 °F
Humidity 67%
Rainfall 0.37 in
Snow Depth Not available.
UV 0.0 out of 12
Pollen 6.60 out of 12
Air Quality Not available.
Flu Activity Not available.
SPECI KELP 222002Z 16005KT 10SM -RA SCT029 BKN060 OVC100 23/17 A3012 RMK AO2 P0000 T02330167

More Conditions Fewer Conditions

Nowcast | as of 12:51 PM MDT on August 22, 2014

Radar and satellite continue to show light to isolated moderate showers in the subtropical moisture plume streaming north across the Borderland mainly east of the Rio Grande at this time. These showers will continue for the next couple of hours and may produce from .1 to .5 inches of rain. Extensive cloud cover will keep temperatures on the cool side. However...where cloud cover starts to break and allow more surface heating...thunderstorms may develop later this afternoon and evening. If thunderstorms do form they could produce locally heavy rain with low area flooding. In addition they may contain small hail...wind gusts to 30 mph...and cloud to ground lightning.

×

10-Day Weather Forecast

Almanac

Astronomy

Aug. 22, 2014 Rise Set
Actual Time 6:35 AM MDT 7:41 PM MDT
Civil Twilight 6:09 AM MDT 8:06 PM MDT
Nautical Twilight 5:39 AM MDT 8:36 PM MDT
Astronomical Twilight 5:08 AM MDT 9:07 PM MDT
Moon 4:04 AM MDT 5:48 PM MDT
Length of Visible Light 13h 57m
Length of Day
13h 06m
Tomorrow will be 1m 47s shorter.
Waning Crescent, 7% of the Moon is Illuminated
Today
Waning Crescent
Aug 25
New
Sep 2
First Quarter
Sep 8
Full
Sep 15
Last Quarter

Today's Extremes

State Highs State Lows

Community

WunderPhotos

Upload Photos

1,746,239 photos uploaded!

Nearby

Snow Depth

Station Depth Elevation
No new snow has been reported.

Earthquake Activity

City Distance Mag. Time & Date
No recent earthquake activity has been reported nearby.
Minimum magnitude displayed is 2.5.

Coastal Water Temperatures

Place Temperature
No Stations Reporting

Nearby Weather Stations